sensor_id;sensor_type;location;lat;lon;timestamp;P1;durP1;ratioP1;P2;durP2;ratioP2
36747;SDS011;22716;51.556;5.080;2023-04-24T00:01:11;13.43;;;11.93;;
36747;SDS011;22716;51.556;5.080;2023-04-24T00:03:40;14.27;;;11.93;;
36747;SDS011;22716;51.556;5.080;2023-04-24T00:06:09;15.27;;;12.63;;
36747;SDS011;22716;51.556;5.080;2023-04-24T00:08:41;15.07;;;13.47;;
36747;SDS011;22716;51.556;5.080;2023-04-24T00:11:09;19.90;;;13.20;;
36747;SDS011;22716;51.556;5.080;2023-04-24T00:13:39;16.33;;;13.17;;
36747;SDS011;22716;51.556;5.080;2023-04-24T00:16:07;17.03;;;13.20;;
36747;SDS011;22716;51.556;5.080;2023-04-24T00:18:36;20.63;;;14.50;;
36747;SDS011;22716;51.556;5.080;2023-04-24T00:21:06;15.23;;;13.63;;
36747;SDS011;22716;51.556;5.080;2023-04-24T00:23:35;19.60;;;14.50;;
36747;SDS011;22716;51.556;5.080;2023-04-24T00:26:06;20.57;;;14.93;;
36747;SDS011;22716;51.556;5.080;2023-04-24T00:28:35;19.60;;;14.97;;
36747;SDS011;22716;51.556;5.080;2023-04-24T00:31:04;18.37;;;16.07;;
36747;SDS011;22716;51.556;5.080;2023-04-24T00:33:33;21.50;;;16.37;;
36747;SDS011;22716;51.556;5.080;2023-04-24T00:36:01;21.40;;;15.20;;
36747;SDS011;22716;51.556;5.080;2023-04-24T00:38:31;23.70;;;17.53;;
36747;SDS011;22716;51.556;5.080;2023-04-24T00:41:00;23.97;;;17.83;;
36747;SDS011;22716;51.556;5.080;2023-04-24T00:43:31;26.13;;;17.77;;
36747;SDS011;22716;51.556;5.080;2023-04-24T00:46:00;24.70;;;18.03;;
36747;SDS011;22716;51.556;5.080;2023-04-24T00:48:29;25.27;;;18.03;;
36747;SDS011;22716;51.556;5.080;2023-04-24T00:50:59;29.13;;;19.67;;
36747;SDS011;22716;51.556;5.080;2023-04-24T00:53:28;27.40;;;19.87;;
36747;SDS011;22716;51.556;5.080;2023-04-24T00:55:57;28.20;;;20.70;;
36747;SDS011;22716;51.556;5.080;2023-04-24T00:58:26;31.70;;;20.50;;
36747;SDS011;22716;51.556;5.080;2023-04-24T01:00:58;29.80;;;20.93;;
36747;SDS011;22716;51.556;5.080;2023-04-24T01:03:32;31.20;;;21.77;;
36747;SDS011;22716;51.556;5.080;2023-04-24T01:06:02;31.43;;;21.67;;
36747;SDS011;22716;51.556;5.080;2023-04-24T01:08:32;29.93;;;21.80;;
36747;SDS011;22716;51.556;5.080;2023-04-24T01:11:03;32.93;;;23.53;;
36747;SDS011;22716;51.556;5.080;2023-04-24T01:13:33;32.33;;;23.20;;
36747;SDS011;22716;51.556;5.080;2023-04-24T01:16:05;31.93;;;22.20;;
36747;SDS011;22716;51.556;5.080;2023-04-24T01:18:33;26.87;;;20.53;;
36747;SDS011;22716;51.556;5.080;2023-04-24T01:21:02;31.67;;;23.33;;
36747;SDS011;22716;51.556;5.080;2023-04-24T01:23:35;30.97;;;22.53;;
36747;SDS011;22716;51.556;5.080;2023-04-24T01:26:04;38.20;;;22.93;;
36747;SDS011;22716;51.556;5.080;2023-04-24T01:28:33;32.73;;;22.60;;
36747;SDS011;22716;51.556;5.080;2023-04-24T01:31:02;32.33;;;23.90;;
36747;SDS011;22716;51.556;5.080;2023-04-24T01:33:31;39.10;;;25.63;;
36747;SDS011;22716;51.556;5.080;2023-04-24T01:36:00;42.50;;;24.63;;
36747;SDS011;22716;51.556;5.080;2023-04-24T01:38:29;29.20;;;22.77;;
36747;SDS011;22716;51.556;5.080;2023-04-24T01:41:01;36.90;;;24.47;;
36747;SDS011;22716;51.556;5.080;2023-04-24T01:43:30;33.47;;;22.57;;
36747;SDS011;22716;51.556;5.080;2023-04-24T01:45:59;30.57;;;22.00;;
36747;SDS011;22716;51.556;5.080;2023-04-24T01:48:28;33.13;;;22.63;;
36747;SDS011;22716;51.556;5.080;2023-04-24T01:50:58;31.33;;;22.43;;
36747;SDS011;22716;51.556;5.080;2023-04-24T01:53:27;34.70;;;23.40;;
36747;SDS011;22716;51.556;5.080;2023-04-24T01:55:56;31.60;;;21.40;;
36747;SDS011;22716;51.556;5.080;2023-04-24T01:58:29;34.23;;;21.37;;
36747;SDS011;22716;51.556;5.080;2023-04-24T02:00:58;37.87;;;21.90;;
36747;SDS011;22716;51.556;5.080;2023-04-24T02:03:28;29.47;;;19.57;;
36747;SDS011;22716;51.556;5.080;2023-04-24T02:05:57;30.50;;;21.93;;
36747;SDS011;22716;51.556;5.080;2023-04-24T02:08:25;32.30;;;20.53;;
36747;SDS011;22716;51.556;5.080;2023-04-24T02:10:54;29.87;;;19.33;;
36747;SDS011;22716;51.556;5.080;2023-04-24T02:13:23;34.83;;;22.07;;
36747;SDS011;22716;51.556;5.080;2023-04-24T02:15:54;36.40;;;20.93;;
36747;SDS011;22716;51.556;5.080;2023-04-24T02:18:23;29.47;;;17.20;;
36747;SDS011;22716;51.556;5.080;2023-04-24T02:20:51;28.67;;;18.20;;
36747;SDS011;22716;51.556;5.080;2023-04-24T02:23:20;30.70;;;17.10;;
36747;SDS011;22716;51.556;5.080;2023-04-24T02:25:49;28.60;;;16.63;;
36747;SDS011;22716;51.556;5.080;2023-04-24T02:28:18;27.63;;;17.47;;
36747;SDS011;22716;51.556;5.080;2023-04-24T02:30:47;25.03;;;17.13;;
36747;SDS011;22716;51.556;5.080;2023-04-24T02:33:18;19.73;;;15.90;;
36747;SDS011;22716;51.556;5.080;2023-04-24T02:35:47;23.10;;;15.10;;
36747;SDS011;22716;51.556;5.080;2023-04-24T02:38:16;22.13;;;14.80;;
36747;SDS011;22716;51.556;5.080;2023-04-24T02:40:44;21.87;;;15.40;;
36747;SDS011;22716;51.556;5.080;2023-04-24T02:43:13;21.80;;;14.43;;
36747;SDS011;22716;51.556;5.080;2023-04-24T02:45:42;19.70;;;14.63;;
36747;SDS011;22716;51.556;5.080;2023-04-24T02:48:11;25.70;;;15.37;;
36747;SDS011;22716;51.556;5.080;2023-04-24T02:50:42;20.63;;;15.10;;
36747;SDS011;22716;51.556;5.080;2023-04-24T02:53:11;22.30;;;14.93;;
36747;SDS011;22716;51.556;5.080;2023-04-24T02:55:40;20.10;;;15.17;;
36747;SDS011;22716;51.556;5.080;2023-04-24T02:58:08;19.77;;;15.67;;
36747;SDS011;22716;51.556;5.080;2023-04-24T03:00:38;21.00;;;15.57;;
36747;SDS011;22716;51.556;5.080;2023-04-24T03:03:06;23.57;;;16.30;;
36747;SDS011;22716;51.556;5.080;2023-04-24T03:05:35;26.00;;;16.77;;
36747;SDS011;22716;51.556;5.080;2023-04-24T03:08:07;22.47;;;16.67;;
36747;SDS011;22716;51.556;5.080;2023-04-24T03:10:35;23.90;;;17.00;;
36747;SDS011;22716;51.556;5.080;2023-04-24T03:13:04;26.90;;;17.40;;
36747;SDS011;22716;51.556;5.080;2023-04-24T03:15:34;21.63;;;16.00;;
36747;SDS011;22716;51.556;5.080;2023-04-24T03:18:02;25.17;;;15.97;;
36747;SDS011;22716;51.556;5.080;2023-04-24T03:20:31;24.23;;;17.03;;
36747;SDS011;22716;51.556;5.080;2023-04-24T03:23:02;19.33;;;16.40;;
36747;SDS011;22716;51.556;5.080;2023-04-24T03:25:33;19.57;;;15.60;;
36747;SDS011;22716;51.556;5.080;2023-04-24T03:28:02;22.87;;;15.80;;
36747;SDS011;22716;51.556;5.080;2023-04-24T03:30:31;21.47;;;15.87;;
36747;SDS011;22716;51.556;5.080;2023-04-24T03:33:00;19.73;;;15.07;;
36747;SDS011;22716;51.556;5.080;2023-04-24T03:35:28;23.73;;;15.50;;
36747;SDS011;22716;51.556;5.080;2023-04-24T03:37:57;22.00;;;15.13;;
36747;SDS011;22716;51.556;5.080;2023-04-24T03:40:26;22.93;;;16.37;;
36747;SDS011;22716;51.556;5.080;2023-04-24T03:42:58;23.57;;;15.03;;
36747;SDS011;22716;51.556;5.080;2023-04-24T03:45:26;24.40;;;16.23;;
36747;SDS011;22716;51.556;5.080;2023-04-24T03:47:55;18.43;;;14.27;;
36747;SDS011;22716;51.556;5.080;2023-04-24T03:50:24;20.93;;;15.53;;
36747;SDS011;22716;51.556;5.080;2023-04-24T03:52:54;19.53;;;14.63;;
36747;SDS011;22716;51.556;5.080;2023-04-24T03:55:23;29.20;;;16.03;;
36747;SDS011;22716;51.556;5.080;2023-04-24T03:57:51;22.93;;;14.63;;
36747;SDS011;22716;51.556;5.080;2023-04-24T04:00:23;20.60;;;15.87;;
36747;SDS011;22716;51.556;5.080;2023-04-24T04:02:52;19.90;;;14.40;;
36747;SDS011;22716;51.556;5.080;2023-04-24T04:05:21;22.60;;;14.23;;
36747;SDS011;22716;51.556;5.080;2023-04-24T04:07:50;21.17;;;14.83;;
36747;SDS011;22716;51.556;5.080;2023-04-24T04:10:19;21.97;;;13.97;;
36747;SDS011;22716;51.556;5.080;2023-04-24T04:12:48;17.03;;;13.30;;
36747;SDS011;22716;51.556;5.080;2023-04-24T04:15:16;17.70;;;12.73;;
36747;SDS011;22716;51.556;5.080;2023-04-24T04:17:48;17.87;;;13.60;;
36747;SDS011;22716;51.556;5.080;2023-04-24T04:20:16;16.70;;;12.80;;
36747;SDS011;22716;51.556;5.080;2023-04-24T04:22:45;18.60;;;13.80;;
36747;SDS011;22716;51.556;5.080;2023-04-24T04:25:14;14.63;;;11.20;;
36747;SDS011;22716;51.556;5.080;2023-04-24T04:27:44;14.77;;;8.97;;
36747;SDS011;22716;51.556;5.080;2023-04-24T04:30:14;15.53;;;9.57;;
36747;SDS011;22716;51.556;5.080;2023-04-24T04:32:43;9.20;;;7.03;;
36747;SDS011;22716;51.556;5.080;2023-04-24T04:35:15;9.90;;;6.47;;
36747;SDS011;22716;51.556;5.080;2023-04-24T04:37:44;9.00;;;6.00;;
36747;SDS011;22716;51.556;5.080;2023-04-24T04:40:12;5.60;;;4.40;;
36747;SDS011;22716;51.556;5.080;2023-04-24T04:42:41;9.90;;;3.80;;
36747;SDS011;22716;51.556;5.080;2023-04-24T04:45:11;3.90;;;3.20;;
36747;SDS011;22716;51.556;5.080;2023-04-24T04:47:42;5.13;;;2.20;;
36747;SDS011;22716;51.556;5.080;2023-04-24T04:50:11;5.47;;;2.47;;
36747;SDS011;22716;51.556;5.080;2023-04-24T04:52:42;4.80;;;2.20;;
36747;SDS011;22716;51.556;5.080;2023-04-24T04:55:11;4.40;;;2.77;;
36747;SDS011;22716;51.556;5.080;2023-04-24T04:57:40;4.93;;;1.80;;
36747;SDS011;22716;51.556;5.080;2023-04-24T05:00:10;2.23;;;1.90;;
36747;SDS011;22716;51.556;5.080;2023-04-24T05:02:41;3.10;;;1.80;;
36747;SDS011;22716;51.556;5.080;2023-04-24T05:05:10;3.80;;;1.70;;
36747;SDS011;22716;51.556;5.080;2023-04-24T05:07:38;9.57;;;2.70;;
36747;SDS011;22716;51.556;5.080;2023-04-24T05:10:10;1.63;;;1.53;;
36747;SDS011;22716;51.556;5.080;2023-04-24T05:12:39;4.63;;;2.23;;
36747;SDS011;22716;51.556;5.080;2023-04-24T05:15:08;7.77;;;2.13;;
36747;SDS011;22716;51.556;5.080;2023-04-24T05:17:38;6.07;;;2.23;;
36747;SDS011;22716;51.556;5.080;2023-04-24T05:20:07;4.03;;;2.87;;
36747;SDS011;22716;51.556;5.080;2023-04-24T05:22:40;4.67;;;2.80;;
36747;SDS011;22716;51.556;5.080;2023-04-24T05:25:11;6.63;;;2.60;;
36747;SDS011;22716;51.556;5.080;2023-04-24T05:27:40;7.53;;;2.50;;
36747;SDS011;22716;51.556;5.080;2023-04-24T05:30:10;4.97;;;2.97;;
36747;SDS011;22716;51.556;5.080;2023-04-24T05:32:40;5.33;;;3.23;;
36747;SDS011;22716;51.556;5.080;2023-04-24T05:35:10;5.10;;;3.30;;
36747;SDS011;22716;51.556;5.080;2023-04-24T05:37:38;6.47;;;3.50;;
36747;SDS011;22716;51.556;5.080;2023-04-24T05:40:08;6.13;;;3.27;;
36747;SDS011;22716;51.556;5.080;2023-04-24T05:42:40;9.13;;;4.90;;
36747;SDS011;22716;51.556;5.080;2023-04-24T05:45:09;8.63;;;5.23;;
36747;SDS011;22716;51.556;5.080;2023-04-24T05:47:42;7.13;;;5.77;;
36747;SDS011;22716;51.556;5.080;2023-04-24T05:50:11;10.90;;;5.90;;
36747;SDS011;22716;51.556;5.080;2023-04-24T05:52:40;8.40;;;5.43;;
36747;SDS011;22716;51.556;5.080;2023-04-24T05:55:11;10.80;;;5.77;;
36747;SDS011;22716;51.556;5.080;2023-04-24T05:57:42;5.87;;;4.73;;
36747;SDS011;22716;51.556;5.080;2023-04-24T06:00:12;12.73;;;5.63;;
36747;SDS011;22716;51.556;5.080;2023-04-24T06:02:43;8.03;;;4.93;;
36747;SDS011;22716;51.556;5.080;2023-04-24T06:05:12;11.50;;;6.37;;
36747;SDS011;22716;51.556;5.080;2023-04-24T06:07:41;12.87;;;6.97;;
36747;SDS011;22716;51.556;5.080;2023-04-24T06:10:12;11.87;;;6.40;;
36747;SDS011;22716;51.556;5.080;2023-04-24T06:12:41;11.60;;;6.40;;
36747;SDS011;22716;51.556;5.080;2023-04-24T06:15:10;12.60;;;7.10;;
36747;SDS011;22716;51.556;5.080;2023-04-24T06:17:39;12.57;;;7.17;;
36747;SDS011;22716;51.556;5.080;2023-04-24T06:20:08;11.20;;;8.13;;
36747;SDS011;22716;51.556;5.080;2023-04-24T06:22:38;13.93;;;7.47;;
36747;SDS011;22716;51.556;5.080;2023-04-24T06:25:07;16.20;;;8.33;;
36747;SDS011;22716;51.556;5.080;2023-04-24T06:27:39;18.70;;;7.97;;
36747;SDS011;22716;51.556;5.080;2023-04-24T06:30:09;16.87;;;9.30;;
36747;SDS011;22716;51.556;5.080;2023-04-24T06:32:39;16.80;;;8.37;;
36747;SDS011;22716;51.556;5.080;2023-04-24T06:35:08;14.43;;;8.47;;
36747;SDS011;22716;51.556;5.080;2023-04-24T06:37:38;16.33;;;9.07;;
36747;SDS011;22716;51.556;5.080;2023-04-24T06:40:08;18.20;;;10.50;;
36747;SDS011;22716;51.556;5.080;2023-04-24T06:42:40;16.90;;;9.33;;
36747;SDS011;22716;51.556;5.080;2023-04-24T06:45:09;13.60;;;8.67;;
36747;SDS011;22716;51.556;5.080;2023-04-24T06:47:38;22.03;;;10.07;;
36747;SDS011;22716;51.556;5.080;2023-04-24T06:50:08;18.30;;;10.00;;
36747;SDS011;22716;51.556;5.080;2023-04-24T06:52:37;17.70;;;9.80;;
36747;SDS011;22716;51.556;5.080;2023-04-24T06:55:07;25.53;;;11.30;;
36747;SDS011;22716;51.556;5.080;2023-04-24T06:57:36;14.57;;;8.10;;
36747;SDS011;22716;51.556;5.080;2023-04-24T07:00:09;14.80;;;9.50;;
36747;SDS011;22716;51.556;5.080;2023-04-24T07:02:39;17.05;;;9.50;;
36747;SDS011;22716;51.556;5.080;2023-04-24T07:05:08;15.90;;;9.33;;
36747;SDS011;22716;51.556;5.080;2023-04-24T07:07:38;13.63;;;9.23;;
36747;SDS011;22716;51.556;5.080;2023-04-24T07:10:07;11.53;;;7.83;;
36747;SDS011;22716;51.556;5.080;2023-04-24T07:12:37;19.20;;;9.67;;
36747;SDS011;22716;51.556;5.080;2023-04-24T07:15:09;23.20;;;7.20;;
36747;SDS011;22716;51.556;5.080;2023-04-24T07:17:38;21.73;;;7.33;;
36747;SDS011;22716;51.556;5.080;2023-04-24T07:20:10;14.93;;;7.30;;
36747;SDS011;22716;51.556;5.080;2023-04-24T07:22:41;16.00;;;6.33;;
36747;SDS011;22716;51.556;5.080;2023-04-24T07:25:11;22.10;;;6.90;;
36747;SDS011;22716;51.556;5.080;2023-04-24T07:27:39;16.27;;;5.87;;
36747;SDS011;22716;51.556;5.080;2023-04-24T07:30:11;11.87;;;5.30;;
36747;SDS011;22716;51.556;5.080;2023-04-24T07:32:40;23.27;;;6.90;;
36747;SDS011;22716;51.556;5.080;2023-04-24T07:35:09;16.40;;;6.60;;
36747;SDS011;22716;51.556;5.080;2023-04-24T07:37:38;15.33;;;6.80;;
36747;SDS011;22716;51.556;5.080;2023-04-24T07:40:11;23.77;;;6.57;;
36747;SDS011;22716;51.556;5.080;2023-04-24T07:42:40;20.73;;;6.73;;
36747;SDS011;22716;51.556;5.080;2023-04-24T07:45:11;20.40;;;8.47;;
36747;SDS011;22716;51.556;5.080;2023-04-24T07:47:41;23.53;;;9.00;;
36747;SDS011;22716;51.556;5.080;2023-04-24T07:50:10;16.57;;;7.30;;
36747;SDS011;22716;51.556;5.080;2023-04-24T07:52:40;19.17;;;6.83;;
36747;SDS011;22716;51.556;5.080;2023-04-24T07:55:08;19.47;;;7.33;;
36747;SDS011;22716;51.556;5.080;2023-04-24T07:57:37;21.07;;;7.27;;
36747;SDS011;22716;51.556;5.080;2023-04-24T08:00:07;16.70;;;6.57;;
36747;SDS011;22716;51.556;5.080;2023-04-24T08:02:39;22.87;;;7.03;;
36747;SDS011;22716;51.556;5.080;2023-04-24T08:05:08;20.43;;;6.47;;
36747;SDS011;22716;51.556;5.080;2023-04-24T08:07:37;20.33;;;7.03;;
36747;SDS011;22716;51.556;5.080;2023-04-24T08:10:09;18.63;;;5.20;;
36747;SDS011;22716;51.556;5.080;2023-04-24T08:12:38;23.80;;;6.10;;
36747;SDS011;22716;51.556;5.080;2023-04-24T08:15:08;11.83;;;4.93;;
36747;SDS011;22716;51.556;5.080;2023-04-24T08:17:40;11.90;;;5.07;;
36747;SDS011;22716;51.556;5.080;2023-04-24T08:20:12;23.20;;;5.63;;
36747;SDS011;22716;51.556;5.080;2023-04-24T08:22:42;15.50;;;5.00;;
36747;SDS011;22716;51.556;5.080;2023-04-24T08:25:12;15.80;;;4.80;;
36747;SDS011;22716;51.556;5.080;2023-04-24T08:27:41;12.97;;;4.37;;
36747;SDS011;22716;51.556;5.080;2023-04-24T08:30:10;19.60;;;5.47;;
36747;SDS011;22716;51.556;5.080;2023-04-24T08:32:42;16.77;;;4.17;;
36747;SDS011;22716;51.556;5.080;2023-04-24T08:35:11;15.00;;;4.20;;
36747;SDS011;22716;51.556;5.080;2023-04-24T08:37:40;15.33;;;5.00;;
36747;SDS011;22716;51.556;5.080;2023-04-24T08:40:12;20.73;;;4.80;;
36747;SDS011;22716;51.556;5.080;2023-04-24T08:42:43;12.75;;;4.32;;
36747;SDS011;22716;51.556;5.080;2023-04-24T08:45:12;18.73;;;4.80;;
36747;SDS011;22716;51.556;5.080;2023-04-24T08:47:44;17.60;;;4.07;;
36747;SDS011;22716;51.556;5.080;2023-04-24T08:50:14;15.57;;;3.77;;
36747;SDS011;22716;51.556;5.080;2023-04-24T08:52:43;9.07;;;3.37;;
36747;SDS011;22716;51.556;5.080;2023-04-24T08:55:12;12.90;;;3.20;;
36747;SDS011;22716;51.556;5.080;2023-04-24T08:57:42;14.33;;;4.20;;
36747;SDS011;22716;51.556;5.080;2023-04-24T09:00:15;10.67;;;3.73;;
36747;SDS011;22716;51.556;5.080;2023-04-24T09:02:49;10.10;;;3.77;;
36747;SDS011;22716;51.556;5.080;2023-04-24T09:05:18;9.90;;;3.43;;
36747;SDS011;22716;51.556;5.080;2023-04-24T09:07:51;23.53;;;4.03;;
36747;SDS011;22716;51.556;5.080;2023-04-24T09:10:23;13.23;;;4.10;;
36747;SDS011;22716;51.556;5.080;2023-04-24T09:12:56;10.73;;;4.83;;
36747;SDS011;22716;51.556;5.080;2023-04-24T09:15:27;14.20;;;4.07;;
36747;SDS011;22716;51.556;5.080;2023-04-24T09:18:00;10.77;;;3.20;;
36747;SDS011;22716;51.556;5.080;2023-04-24T09:20:29;10.83;;;2.67;;
36747;SDS011;22716;51.556;5.080;2023-04-24T09:22:58;11.00;;;4.27;;
36747;SDS011;22716;51.556;5.080;2023-04-24T09:25:31;12.47;;;3.70;;
36747;SDS011;22716;51.556;5.080;2023-04-24T09:28:01;20.52;;;4.97;;
36747;SDS011;22716;51.556;5.080;2023-04-24T09:30:31;15.47;;;3.00;;
36747;SDS011;22716;51.556;5.080;2023-04-24T09:33:13;25.93;;;16.30;;
36747;SDS011;22716;51.556;5.080;2023-04-24T09:35:48;26.33;;;13.07;;
36747;SDS011;22716;51.556;5.080;2023-04-24T09:38:18;9.27;;;2.67;;
36747;SDS011;22716;51.556;5.080;2023-04-24T09:40:46;9.67;;;3.33;;
36747;SDS011;22716;51.556;5.080;2023-04-24T09:43:15;7.77;;;2.10;;
36747;SDS011;22716;51.556;5.080;2023-04-24T09:45:44;9.30;;;2.17;;
36747;SDS011;22716;51.556;5.080;2023-04-24T09:48:15;12.70;;;2.77;;
36747;SDS011;22716;51.556;5.080;2023-04-24T09:50:45;9.63;;;2.73;;
36747;SDS011;22716;51.556;5.080;2023-04-24T09:53:15;10.03;;;2.20;;
36747;SDS011;22716;51.556;5.080;2023-04-24T09:55:44;7.97;;;1.73;;
36747;SDS011;22716;51.556;5.080;2023-04-24T09:58:15;4.77;;;2.00;;
36747;SDS011;22716;51.556;5.080;2023-04-24T10:00:44;4.50;;;1.70;;
36747;SDS011;22716;51.556;5.080;2023-04-24T10:03:16;3.17;;;1.57;;
36747;SDS011;22716;51.556;5.080;2023-04-24T10:05:46;7.97;;;1.13;;
36747;SDS011;22716;51.556;5.080;2023-04-24T10:08:15;4.47;;;1.10;;
36747;SDS011;22716;51.556;5.080;2023-04-24T10:10:45;3.43;;;1.40;;
36747;SDS011;22716;51.556;5.080;2023-04-24T10:13:14;5.17;;;1.87;;
36747;SDS011;22716;51.556;5.080;2023-04-24T10:15:43;3.83;;;1.37;;
36747;SDS011;22716;51.556;5.080;2023-04-24T10:18:12;4.57;;;1.63;;
36747;SDS011;22716;51.556;5.080;2023-04-24T10:20:43;3.00;;;1.03;;
36747;SDS011;22716;51.556;5.080;2023-04-24T10:23:14;5.10;;;1.00;;
36747;SDS011;22716;51.556;5.080;2023-04-24T10:25:44;3.43;;;1.00;;
36747;SDS011;22716;51.556;5.080;2023-04-24T10:28:13;5.43;;;1.37;;
36747;SDS011;22716;51.556;5.080;2023-04-24T10:30:43;3.53;;;0.90;;
36747;SDS011;22716;51.556;5.080;2023-04-24T10:33:12;3.83;;;1.57;;
36747;SDS011;22716;51.556;5.080;2023-04-24T10:35:45;8.20;;;2.10;;
36747;SDS011;22716;51.556;5.080;2023-04-24T10:38:18;1.48;;;0.90;;
36747;SDS011;22716;51.556;5.080;2023-04-24T10:40:57;4.80;;;1.97;;
36747;SDS011;22716;51.556;5.080;2023-04-24T10:43:35;8.77;;;2.27;;
36747;SDS011;22716;51.556;5.080;2023-04-24T10:46:04;3.53;;;1.30;;
36747;SDS011;22716;51.556;5.080;2023-04-24T10:48:35;3.93;;;1.77;;
36747;SDS011;22716;51.556;5.080;2023-04-24T10:51:16;2.63;;;1.03;;
36747;SDS011;22716;51.556;5.080;2023-04-24T10:53:44;1.35;;;0.70;;
36747;SDS011;22716;51.556;5.080;2023-04-24T10:56:15;4.27;;;1.27;;
36747;SDS011;22716;51.556;5.080;2023-04-24T10:58:49;3.23;;;0.93;;
36747;SDS011;22716;51.556;5.080;2023-04-24T11:01:28;5.63;;;0.88;;
36747;SDS011;22716;51.556;5.080;2023-04-24T11:03:59;4.80;;;1.60;;
36747;SDS011;22716;51.556;5.080;2023-04-24T11:06:32;1.23;;;0.80;;
36747;SDS011;22716;51.556;5.080;2023-04-24T11:09:02;5.10;;;1.10;;
36747;SDS011;22716;51.556;5.080;2023-04-24T11:11:33;3.07;;;1.00;;
36747;SDS011;22716;51.556;5.080;2023-04-24T11:14:03;3.33;;;1.37;;
36747;SDS011;22716;51.556;5.080;2023-04-24T11:16:35;5.87;;;1.73;;
36747;SDS011;22716;51.556;5.080;2023-04-24T11:19:08;5.93;;;1.57;;
36747;SDS011;22716;51.556;5.080;2023-04-24T11:21:44;9.80;;;1.63;;
36747;SDS011;22716;51.556;5.080;2023-04-24T11:24:25;3.07;;;1.37;;
36747;SDS011;22716;51.556;5.080;2023-04-24T11:26:58;8.53;;;1.50;;
36747;SDS011;22716;51.556;5.080;2023-04-24T11:29:40;6.20;;;1.33;;
36747;SDS011;22716;51.556;5.080;2023-04-24T11:32:15;4.37;;;1.57;;
36747;SDS011;22716;51.556;5.080;2023-04-24T11:34:52;7.47;;;1.07;;
36747;SDS011;22716;51.556;5.080;2023-04-24T11:37:26;3.33;;;1.93;;
36747;SDS011;22716;51.556;5.080;2023-04-24T11:39:56;3.55;;;0.90;;
36747;SDS011;22716;51.556;5.080;2023-04-24T11:42:26;4.07;;;2.07;;
36747;SDS011;22716;51.556;5.080;2023-04-24T11:44:56;7.13;;;1.37;;
36747;SDS011;22716;51.556;5.080;2023-04-24T11:47:28;8.40;;;1.17;;
36747;SDS011;22716;51.556;5.080;2023-04-24T11:49:59;10.07;;;2.40;;
36747;SDS011;22716;51.556;5.080;2023-04-24T11:52:31;6.47;;;1.60;;
36747;SDS011;22716;51.556;5.080;2023-04-24T11:55:01;4.33;;;2.27;;
36747;SDS011;22716;51.556;5.080;2023-04-24T11:57:31;6.80;;;1.90;;
36747;SDS011;22716;51.556;5.080;2023-04-24T12:00:02;4.63;;;1.60;;
36747;SDS011;22716;51.556;5.080;2023-04-24T12:02:33;1.53;;;0.93;;
36747;SDS011;22716;51.556;5.080;2023-04-24T12:05:02;6.67;;;1.37;;
36747;SDS011;22716;51.556;5.080;2023-04-24T12:07:39;2.67;;;1.40;;
36747;SDS011;22716;51.556;5.080;2023-04-24T12:10:10;4.00;;;1.13;;
36747;SDS011;22716;51.556;5.080;2023-04-24T12:12:40;3.10;;;0.90;;
36747;SDS011;22716;51.556;5.080;2023-04-24T12:15:11;2.60;;;0.93;;
36747;SDS011;22716;51.556;5.080;2023-04-24T12:17:41;2.97;;;0.90;;
36747;SDS011;22716;51.556;5.080;2023-04-24T12:20:11;2.00;;;1.07;;
36747;SDS011;22716;51.556;5.080;2023-04-24T12:22:48;3.13;;;0.87;;
36747;SDS011;22716;51.556;5.080;2023-04-24T12:25:20;4.27;;;1.13;;
36747;SDS011;22716;51.556;5.080;2023-04-24T12:27:52;5.80;;;2.10;;
36747;SDS011;22716;51.556;5.080;2023-04-24T12:30:25;1.43;;;0.90;;
36747;SDS011;22716;51.556;5.080;2023-04-24T12:32:57;4.20;;;1.05;;
36747;SDS011;22716;51.556;5.080;2023-04-24T12:35:28;1.17;;;0.80;;
36747;SDS011;22716;51.556;5.080;2023-04-24T12:38:07;4.20;;;1.50;;
36747;SDS011;22716;51.556;5.080;2023-04-24T12:40:38;4.70;;;1.33;;
36747;SDS011;22716;51.556;5.080;2023-04-24T12:43:13;5.80;;;1.20;;
36747;SDS011;22716;51.556;5.080;2023-04-24T12:45:43;12.47;;;2.00;;
36747;SDS011;22716;51.556;5.080;2023-04-24T12:48:12;9.33;;;1.00;;
36747;SDS011;22716;51.556;5.080;2023-04-24T12:50:42;5.20;;;1.17;;
36747;SDS011;22716;51.556;5.080;2023-04-24T12:53:14;1.80;;;1.03;;
36747;SDS011;22716;51.556;5.080;2023-04-24T12:55:43;2.93;;;0.80;;
36747;SDS011;22716;51.556;5.080;2023-04-24T13:00:49;3.23;;;1.07;;
36747;SDS011;22716;51.556;5.080;2023-04-24T13:03:19;1.63;;;1.43;;
36747;SDS011;22716;51.556;5.080;2023-04-24T13:05:48;2.97;;;1.20;;
36747;SDS011;22716;51.556;5.080;2023-04-24T13:08:19;3.67;;;1.27;;
36747;SDS011;22716;51.556;5.080;2023-04-24T13:10:48;5.27;;;1.57;;
36747;SDS011;22716;51.556;5.080;2023-04-24T13:13:19;8.30;;;2.13;;
36747;SDS011;22716;51.556;5.080;2023-04-24T13:15:47;7.13;;;1.13;;
36747;SDS011;22716;51.556;5.080;2023-04-24T13:18:16;4.07;;;1.30;;
36747;SDS011;22716;51.556;5.080;2023-04-24T13:20:45;3.30;;;0.90;;
36747;SDS011;22716;51.556;5.080;2023-04-24T13:23:20;0.90;;;0.73;;
36747;SDS011;22716;51.556;5.080;2023-04-24T13:25:50;3.63;;;1.03;;
36747;SDS011;22716;51.556;5.080;2023-04-24T13:28:22;4.33;;;1.77;;
36747;SDS011;22716;51.556;5.080;2023-04-24T13:30:51;2.10;;;1.20;;
36747;SDS011;22716;51.556;5.080;2023-04-24T13:33:20;3.77;;;1.50;;
36747;SDS011;22716;51.556;5.080;2023-04-24T13:35:48;7.27;;;1.63;;
36747;SDS011;22716;51.556;5.080;2023-04-24T13:38:17;4.10;;;1.63;;
36747;SDS011;22716;51.556;5.080;2023-04-24T13:40:50;3.80;;;1.53;;
36747;SDS011;22716;51.556;5.080;2023-04-24T13:43:18;2.17;;;0.97;;
36747;SDS011;22716;51.556;5.080;2023-04-24T13:45:47;3.77;;;1.20;;
36747;SDS011;22716;51.556;5.080;2023-04-24T13:48:16;2.17;;;1.03;;
36747;SDS011;22716;51.556;5.080;2023-04-24T13:50:45;7.60;;;1.70;;
36747;SDS011;22716;51.556;5.080;2023-04-24T13:53:15;5.10;;;1.80;;
36747;SDS011;22716;51.556;5.080;2023-04-24T13:55:43;3.17;;;1.73;;
36747;SDS011;22716;51.556;5.080;2023-04-24T13:58:15;4.37;;;1.37;;
36747;SDS011;22716;51.556;5.080;2023-04-24T14:00:43;3.00;;;1.43;;
36747;SDS011;22716;51.556;5.080;2023-04-24T14:03:12;4.53;;;1.73;;
36747;SDS011;22716;51.556;5.080;2023-04-24T14:05:41;4.37;;;1.27;;
36747;SDS011;22716;51.556;5.080;2023-04-24T14:08:10;4.33;;;1.50;;
36747;SDS011;22716;51.556;5.080;2023-04-24T14:16:55;3.87;;;1.10;;
36747;SDS011;22716;51.556;5.080;2023-04-24T14:19:24;2.47;;;0.97;;
36747;SDS011;22716;51.556;5.080;2023-04-24T14:21:53;2.67;;;1.67;;
36747;SDS011;22716;51.556;5.080;2023-04-24T14:24:23;2.87;;;1.13;;
36747;SDS011;22716;51.556;5.080;2023-04-24T14:26:52;3.40;;;1.60;;
36747;SDS011;22716;51.556;5.080;2023-04-24T14:29:21;4.90;;;1.30;;
36747;SDS011;22716;51.556;5.080;2023-04-24T14:31:51;2.53;;;1.10;;
36747;SDS011;22716;51.556;5.080;2023-04-24T14:34:23;3.83;;;1.20;;
36747;SDS011;22716;51.556;5.080;2023-04-24T14:36:52;6.03;;;1.27;;
36747;SDS011;22716;51.556;5.080;2023-04-24T14:39:21;8.17;;;2.23;;
36747;SDS011;22716;51.556;5.080;2023-04-24T14:41:50;11.00;;;2.53;;
36747;SDS011;22716;51.556;5.080;2023-04-24T14:44:19;3.67;;;1.50;;
36747;SDS011;22716;51.556;5.080;2023-04-24T14:46:48;4.85;;;1.98;;
36747;SDS011;22716;51.556;5.080;2023-04-24T14:49:17;4.95;;;1.73;;
36747;SDS011;22716;51.556;5.080;2023-04-24T14:51:48;5.63;;;1.83;;
36747;SDS011;22716;51.556;5.080;2023-04-24T14:54:17;3.05;;;1.15;;
36747;SDS011;22716;51.556;5.080;2023-04-24T14:56:48;7.35;;;2.03;;
36747;SDS011;22716;51.556;5.080;2023-04-24T14:59:17;2.55;;;1.23;;
36747;SDS011;22716;51.556;5.080;2023-04-24T15:01:46;7.80;;;2.97;;